Time;durP1;ratioP1;P1;durP2;ratioP2;P2;SDS_P1;SDS_P2;PMS_P1;PMS_P2;Temp;Humidity;BMP_temperature;BMP_pressure;BME280_temperature;BME280_humidity;BME280_pressure;Samples;Min_cycle;Max_cycle;Signal;HPM_P1;HPM_P2
2022/11/06 00:01:14;;;;;;;24.53;10.80;;;10.10;66.90;;;;;;5091692;28;20641;-51
2022/11/06 00:03:41;;;;;;;20.40;10.30;;;10.20;66.30;;;;;;5088412;28;20212;-60
2022/11/06 00:09:01;;;;;;;13.73;9.90;;;10.30;66.80;;;;;;5088503;28;20590;-54
2022/11/06 00:11:27;;;;;;;16.97;9.30;;;10.30;66.60;;;;;;5088673;28;20791;-53
2022/11/06 00:13:53;;;;;;;19.37;9.60;;;10.30;66.80;;;;;;5086883;28;20438;-54
2022/11/06 00:16:19;;;;;;;22.17;9.70;;;10.10;67.30;;;;;;5088713;28;20229;-52
2022/11/06 00:18:45;;;;;;;52.40;11.17;;;9.80;69.80;;;;;;5096301;28;20199;-56
2022/11/06 00:21:14;;;;;;;31.77;11.03;;;9.80;70.70;;;;;;5086795;28;20433;-54
2022/11/06 00:23:41;;;;;;;24.90;9.03;;;9.90;70.70;;;;;;5084610;28;20517;-52
2022/11/06 00:26:14;;;;;;;13.53;10.40;;;9.90;70.70;;;;;;5091797;28;20940;-54
2022/11/06 00:28:40;;;;;;;43.73;9.83;;;10.10;69.10;;;;;;5091779;28;20446;-54
2022/11/06 00:31:07;;;;;;;23.40;8.70;;;9.90;70.20;;;;;;5089768;28;20445;-54
2022/11/06 00:33:34;;;;;;;10.57;9.47;;;9.80;70.80;;;;;;5089053;28;20449;-55
2022/11/06 00:36:02;;;;;;;16.23;9.70;;;9.70;71.60;;;;;;5089718;28;21529;-54
2022/11/06 00:38:28;;;;;;;10.70;8.73;;;9.90;71.60;;;;;;5088829;28;20532;-54
2022/11/06 00:40:54;;;;;;;11.00;8.80;;;10.10;69.80;;;;;;5089803;28;20531;-55
2022/11/06 00:43:19;;;;;;;11.87;9.20;;;10.30;69.10;;;;;;5090098;28;20278;-55
2022/11/06 00:45:45;;;;;;;12.23;9.10;;;10.50;68.40;;;;;;5089658;28;20235;-54
2022/11/06 00:48:11;;;;;;;9.97;8.87;;;10.60;67.70;;;;;;5090308;28;20207;-54
2022/11/06 00:50:36;;;;;;;14.27;10.00;;;10.70;67.10;;;;;;5091499;28;20207;-54
2022/11/06 00:53:02;;;;;;;14.40;8.40;;;10.50;66.20;;;;;;5087605;28;20359;-53
2022/11/06 00:55:27;;;;;;;31.07;10.20;;;10.40;66.80;;;;;;5089722;28;20281;-54
2022/11/06 00:57:53;;;;;;;12.33;8.97;;;10.30;67.10;;;;;;5090922;28;20190;-54
2022/11/06 01:00:19;;;;;;;17.10;9.23;;;10.10;68.10;;;;;;5087200;28;20268;-55
2022/11/06 01:02:45;;;;;;;11.03;9.43;;;10.20;68.40;;;;;;5088657;28;20247;-55
2022/11/06 01:05:12;;;;;;;45.57;10.40;;;10.20;68.20;;;;;;5086743;28;20488;-53
2022/11/06 01:07:38;;;;;;;41.50;10.27;;;10.30;68.20;;;;;;5088895;28;20455;-55
2022/11/06 01:10:04;;;;;;;50.90;10.43;;;10.40;67.70;;;;;;5081655;28;20916;-54
2022/11/06 01:12:31;;;;;;;44.37;9.90;;;10.30;68.00;;;;;;5088050;28;20202;-55
2022/11/06 01:14:57;;;;;;;53.90;9.90;;;10.20;68.00;;;;;;5088266;28;20445;-52
2022/11/06 01:17:23;;;;;;;24.93;8.90;;;10.00;68.70;;;;;;5088459;28;20947;-55
2022/11/06 01:19:48;;;;;;;42.77;10.03;;;10.10;68.60;;;;;;5086918;28;20222;-54
2022/11/06 01:22:14;;;;;;;11.97;9.60;;;10.10;68.40;;;;;;5085888;28;20191;-55
2022/11/06 01:24:40;;;;;;;73.27;11.53;;;10.10;68.70;;;;;;5087290;28;20611;-54
2022/11/06 01:27:07;;;;;;;44.83;11.30;;;10.20;68.30;;;;;;5087828;28;20465;-54
2022/11/06 01:29:33;;;;;;;19.50;8.67;;;10.40;68.00;;;;;;5086611;28;20440;-55
2022/11/06 01:31:59;;;;;;;42.27;9.73;;;10.50;67.50;;;;;;5086057;28;20449;-55
2022/11/06 01:34:25;;;;;;;14.63;9.83;;;10.60;67.10;;;;;;5088595;28;20244;-54
2022/11/06 01:36:51;;;;;;;13.83;9.57;;;10.60;66.90;;;;;;5091650;28;20191;-54
2022/11/06 01:39:16;;;;;;;72.23;11.33;;;10.70;66.80;;;;;;5089552;28;20527;-56
2022/11/06 01:41:48;;;;;;;72.87;14.23;;;10.40;66.10;;;;;;5093523;28;20194;-53
2022/11/06 01:44:13;;;;;;;30.97;9.87;;;10.40;67.10;;;;;;5091310;28;20410;-55
2022/11/06 01:46:39;;;;;;;57.33;9.77;;;10.50;67.30;;;;;;5090900;28;20466;-54
2022/11/06 01:49:11;;;;;;;17.60;8.53;;;10.40;67.40;;;;;;5081220;28;20230;-55
2022/11/06 01:51:44;;;;;;;24.37;8.53;;;10.50;67.50;;;;;;5083012;28;20200;-55
2022/11/06 01:54:11;;;;;;;19.40;8.83;;;10.60;67.10;;;;;;5085411;28;20448;-55
2022/11/06 01:56:38;;;;;;;10.60;9.13;;;10.70;66.80;;;;;;5088894;28;20483;-55
2022/11/06 01:59:07;;;;;;;31.03;9.13;;;10.70;66.70;;;;;;5087282;28;20433;-53
2022/11/06 02:01:33;;;;;;;51.23;10.13;;;10.70;66.70;;;;;;5089928;28;20526;-53
2022/11/06 02:04:08;;;;;;;14.00;8.93;;;10.70;65.70;;;;;;5080561;28;20488;-54
2022/11/06 02:06:34;;;;;;;108.03;15.60;;;10.60;66.30;;;;;;5085063;28;20251;-54
2022/11/06 02:09:00;;;;;;;48.00;10.83;;;10.50;66.60;;;;;;5085960;28;20795;-54
2022/11/06 02:11:26;;;;;;;40.73;9.90;;;10.40;67.20;;;;;;5101157;28;20187;-55
2022/11/06 02:14:05;;;;;;;15.60;8.20;;;10.40;67.40;;;;;;5087258;28;20433;-57
2022/11/06 02:17:05;;;;;;;47.50;10.33;;;10.30;67.30;;;;;;5090680;28;20935;-54
2022/11/06 02:19:58;;;;;;;62.63;10.33;;;10.30;67.30;;;;;;5070755;28;20445;-54
2022/11/06 02:22:45;;;;;;;56.90;9.40;;;10.20;67.60;;;;;;5088300;28;20974;-55
2022/11/06 02:25:29;;;;;;;86.83;11.83;;;10.10;68.20;;;;;;5076723;28;20838;-54
2022/11/06 02:28:20;;;;;;;52.73;8.80;;;10.10;68.10;;;;;;5090316;28;20464;-55
2022/11/06 02:30:48;;;;;;;16.87;7.83;;;10.00;67.50;;;;;;5090087;28;20437;-54
2022/11/06 02:33:28;;;;;;;62.40;9.50;;;9.50;70.00;;;;;;5095301;28;21423;-55
2022/11/06 02:36:04;;;;;;;84.57;10.47;;;9.50;70.90;;;;;;5089168;28;20536;-55
2022/11/06 02:38:41;;;;;;;54.50;9.30;;;9.70;70.90;;;;;;5090408;28;20444;-55
2022/11/06 02:41:12;;;;;;;19.00;7.80;;;9.70;71.20;;;;;;5090944;28;20455;-54
2022/11/06 02:43:43;;;;;;;40.73;10.37;;;9.80;70.80;;;;;;5092528;28;20820;-54
2022/11/06 02:46:16;;;;;;;108.20;12.37;;;10.00;68.90;;;;;;5089778;28;20484;-54
2022/11/06 02:48:54;;;;;;;81.73;10.13;;;9.40;70.40;;;;;;5089241;28;20803;-55
2022/11/06 02:51:24;;;;;;;66.27;10.00;;;9.30;72.00;;;;;;5091466;28;20969;-55
2022/11/06 02:53:51;;;;;;;82.83;11.20;;;9.30;72.10;;;;;;5090555;28;20439;-56
2022/11/06 02:56:21;;;;;;;35.10;7.60;;;9.00;73.00;;;;;;5092273;28;20429;-53
2022/11/06 02:59:03;;;;;;;76.93;10.80;;;8.80;74.80;;;;;;5090980;28;20470;-55
2022/11/06 03:01:37;;;;;;;20.30;8.67;;;9.00;75.30;;;;;;5091387;28;20439;-54
2022/11/06 03:04:19;;;;;;;63.90;10.07;;;9.20;74.60;;;;;;5084371;28;20445;-54
2022/11/06 03:06:50;;;;;;;41.93;10.00;;;9.10;73.70;;;;;;5090135;28;20453;-53
2022/11/06 03:09:24;;;;;;;49.17;8.87;;;9.00;75.10;;;;;;5089795;28;20437;-55
2022/11/06 03:11:58;;;;;;;22.83;8.60;;;8.90;75.20;;;;;;5090958;28;21012;-55
2022/11/06 03:14:49;;;;;;;15.70;8.30;;;8.90;75.60;;;;;;5088323;28;20441;-54
2022/11/06 03:17:37;;;;;;;17.83;8.80;;;9.20;74.70;;;;;;5079861;28;20498;-55
2022/11/06 03:20:28;;;;;;;19.30;8.40;;;9.30;73.80;;;;;;5089342;28;20437;-54
2022/11/06 03:23:01;;;;;;;32.77;8.43;;;9.30;72.80;;;;;;5086238;28;20448;-54
2022/11/06 03:25:39;;;;;;;32.50;9.33;;;9.00;73.60;;;;;;5088596;28;20480;-53
2022/11/06 03:28:11;;;;;;;15.57;7.80;;;8.80;74.20;;;;;;5090939;28;20468;-54
2022/11/06 03:30:46;;;;;;;14.90;8.87;;;8.70;75.10;;;;;;5089520;28;20444;-53
2022/11/06 03:33:22;;;;;;;14.30;8.43;;;8.70;75.90;;;;;;5088958;28;20505;-53
2022/11/06 03:35:52;;;;;;;22.37;8.30;;;8.80;76.00;;;;;;5088710;28;20514;-55
2022/11/06 03:38:34;;;;;;;40.37;8.70;;;9.00;74.00;;;;;;5086652;28;20561;-53
2022/11/06 03:41:11;;;;;;;22.37;7.47;;;9.00;73.70;;;;;;5086183;28;20448;-54
2022/11/06 03:43:42;;;;;;;32.83;10.03;;;9.10;73.70;;;;;;5085803;28;20476;-55
2022/11/06 03:46:14;;;;;;;18.37;7.80;;;8.90;73.50;;;;;;5088515;28;20556;-54
2022/11/06 03:48:46;;;;;;;21.00;8.30;;;8.80;73.70;;;;;;5085845;28;20947;-54
2022/11/06 03:51:17;;;;;;;42.97;8.77;;;8.60;75.40;;;;;;5087208;28;20444;-55
2022/11/06 03:53:48;;;;;;;22.80;8.47;;;8.80;74.70;;;;;;5096162;28;20798;-54
2022/11/06 03:56:33;;;;;;;24.07;8.77;;;8.70;74.30;;;;;;5089580;28;20905;-53
2022/11/06 03:59:03;;;;;;;9.27;7.60;;;8.70;74.90;;;;;;5083214;28;20446;-54
2022/11/06 04:01:34;;;;;;;9.00;7.20;;;8.50;74.70;;;;;;5090276;28;20959;-55
2022/11/06 04:04:09;;;;;;;8.53;7.47;;;8.50;75.20;;;;;;5090110;28;20441;-54
2022/11/06 04:06:41;;;;;;;20.10;7.70;;;8.50;75.80;;;;;;5090393;28;20456;-55
2022/11/06 04:14:45;;;;;;;10.40;6.77;;;8.80;72.90;;;;;;5087091;28;20455;-54
2022/11/06 04:17:13;;;;;;;12.23;8.03;;;8.90;72.00;;;;;;5088389;28;20440;-54
2022/11/06 04:19:45;;;;;;;15.43;6.90;;;9.00;71.50;;;;;;5090051;28;20509;-54
2022/11/06 04:22:21;;;;;;;16.53;7.30;;;8.80;71.30;;;;;;5084825;28;20476;-54
2022/11/06 04:28:02;;;;;;;17.23;7.10;;;8.70;71.60;;;;;;5085559;28;20460;-54
2022/11/06 04:30:32;;;;;;;18.67;7.10;;;8.70;71.80;;;;;;5082457;28;20453;-54
2022/11/06 04:33:24;;;;;;;10.27;6.87;;;8.70;72.10;;;;;;5089668;28;21226;-53
2022/11/06 04:36:28;;;;;;;26.63;6.27;;;8.60;72.20;;;;;;5085613;28;20484;-54
2022/11/06 04:39:03;;;;;;;15.00;6.10;;;8.50;72.10;;;;;;5084372;28;20433;-55
2022/11/06 04:42:06;;;;;;;19.07;6.17;;;8.50;72.90;;;;;;5085083;28;20453;-51
2022/11/06 04:44:38;;;;;;;18.03;7.33;;;8.40;72.20;;;;;;5075823;28;20839;-55
2022/11/06 04:47:10;;;;;;;25.03;7.67;;;8.50;72.60;;;;;;5088773;28;20444;-55
2022/11/06 04:49:39;;;;;;;18.50;6.10;;;8.60;72.10;;;;;;5084949;28;20440;-54
2022/11/06 04:52:08;;;;;;;11.57;6.40;;;8.80;71.70;;;;;;5090355;28;20444;-55
2022/11/06 04:54:34;;;;;;;25.67;6.40;;;8.90;70.80;;;;;;5089792;28;20504;-53
2022/11/06 04:57:01;;;;;;;33.37;7.00;;;8.70;70.80;;;;;;5098860;28;20440;-54
2022/11/06 04:59:28;;;;;;;8.10;5.70;;;8.70;71.20;;;;;;5087332;28;20471;-52
2022/11/06 05:01:53;;;;;;;16.17;6.20;;;8.70;71.10;;;;;;5082411;28;20437;-54
2022/11/06 05:04:19;;;;;;;19.73;7.00;;;8.90;71.10;;;;;;5077170;28;20449;-54
2022/11/06 05:06:44;;;;;;;53.53;7.63;;;8.90;71.10;;;;;;5086818;28;20600;-54
2022/11/06 05:09:10;;;;;;;46.40;7.90;;;8.90;70.30;;;;;;5090423;28;20223;-52
2022/11/06 05:11:37;;;;;;;93.70;9.50;;;8.70;70.20;;;;;;5091629;28;20195;-54
2022/11/06 05:14:03;;;;;;;86.73;9.40;;;8.20;72.20;;;;;;5084837;28;20203;-55
2022/11/06 05:16:28;;;;;;;22.63;6.20;;;8.10;73.40;;;;;;5091289;28;20800;-54
2022/11/06 05:18:54;;;;;;;93.23;12.50;;;8.10;74.00;;;;;;5087412;28;20191;-54
2022/11/06 05:24:04;;;;;;;15.17;6.27;;;8.50;73.30;;;;;;5081077;28;20272;-55
2022/11/06 05:26:30;;;;;;;9.47;5.90;;;8.60;72.80;;;;;;5086833;28;20521;-55
2022/11/06 05:28:55;;;;;;;16.70;6.80;;;8.70;72.50;;;;;;5088662;28;20602;-53
2022/11/06 05:31:21;;;;;;;9.70;6.03;;;8.80;72.00;;;;;;5087091;28;20206;-54
2022/11/06 05:33:46;;;;;;;6.33;5.70;;;9.00;71.60;;;;;;5083130;28;20292;-54
2022/11/06 05:36:12;;;;;;;39.43;8.80;;;9.10;71.10;;;;;;5087270;28;20194;-53
2022/11/06 05:38:38;;;;;;;40.80;7.13;;;9.10;70.50;;;;;;5085052;28;20231;-54
2022/11/06 05:41:04;;;;;;;34.03;5.90;;;9.00;69.90;;;;;;5085216;28;20187;-53
2022/11/06 05:43:29;;;;;;;22.67;6.53;;;9.00;70.10;;;;;;5087886;28;20190;-53
2022/11/06 05:45:55;;;;;;;9.23;5.50;;;9.00;70.40;;;;;;5087975;28;20223;-54
2022/11/06 05:48:20;;;;;;;51.00;7.20;;;8.90;69.80;;;;;;5085953;28;20557;-53
2022/11/06 05:50:46;;;;;;;38.77;7.03;;;8.80;70.20;;;;;;5086591;28;20672;-54
2022/11/06 05:53:12;;;;;;;9.90;6.17;;;8.90;70.40;;;;;;5088264;28;20195;-54
2022/11/06 05:55:38;;;;;;;13.03;6.33;;;8.80;70.60;;;;;;5093046;28;20311;-55
2022/11/06 05:58:03;;;;;;;42.73;7.37;;;9.00;69.90;;;;;;5083189;28;20463;-54
2022/11/06 06:00:29;;;;;;;15.97;6.37;;;9.00;69.20;;;;;;5078237;28;20190;-55
2022/11/06 06:02:54;;;;;;;107.63;9.07;;;9.00;68.70;;;;;;5092642;28;20201;-52
2022/11/06 06:05:20;;;;;;;49.03;7.30;;;9.00;69.20;;;;;;5097300;28;20222;-54
2022/11/06 06:07:45;;;;;;;24.87;6.80;;;8.80;69.80;;;;;;5089498;28;20275;-54
2022/11/06 06:10:11;;;;;;;12.93;6.53;;;8.70;70.30;;;;;;5089081;28;20204;-55
2022/11/06 06:12:38;;;;;;;66.53;8.10;;;8.80;70.80;;;;;;5091031;28;20282;-55
2022/11/06 06:15:05;;;;;;;15.50;5.80;;;8.80;69.90;;;;;;5090515;28;20199;-53
2022/11/06 06:17:30;;;;;;;121.87;9.00;;;8.80;70.40;;;;;;5089835;28;20568;-55
2022/11/06 06:19:56;;;;;;;17.60;6.20;;;8.90;69.90;;;;;;5092058;28;20502;-54
2022/11/06 06:22:21;;;;;;;11.57;5.77;;;8.80;70.20;;;;;;5090387;28;20187;-54
2022/11/06 06:24:47;;;;;;;6.90;5.17;;;8.60;70.70;;;;;;5091800;28;20234;-57
2022/11/06 06:27:13;;;;;;;14.33;6.23;;;8.80;72.40;;;;;;5090965;28;20638;-56
2022/11/06 06:29:38;;;;;;;19.13;7.07;;;9.20;74.60;;;;;;5085417;28;20193;-57
2022/11/06 06:32:04;;;;;;;8.63;6.27;;;9.70;74.90;;;;;;5089416;28;20191;-57
2022/11/06 06:34:29;;;;;;;15.50;6.73;;;10.10;74.20;;;;;;5083107;28;20191;-57
2022/11/06 06:36:55;;;;;;;30.70;6.03;;;10.20;70.60;;;;;;5089452;28;20530;-57
2022/11/06 06:39:21;;;;;;;14.07;4.87;;;10.40;71.30;;;;;;5091639;28;20190;-56
2022/11/06 06:41:48;;;;;;;17.97;6.47;;;10.70;69.90;;;;;;5087491;28;20191;-58
2022/11/06 06:44:14;;;;;;;9.83;6.77;;;10.90;69.60;;;;;;5094107;28;20195;-57
2022/11/06 06:46:40;;;;;;;12.10;6.80;;;11.10;68.90;;;;;;5083110;28;20828;-57
2022/11/06 06:49:06;;;;;;;12.17;6.47;;;11.10;67.10;;;;;;5093464;28;20440;-57
2022/11/06 06:51:31;;;;;;;8.57;4.47;;;11.20;65.80;;;;;;5089709;28;20686;-58
2022/11/06 06:53:57;;;;;;;10.00;5.87;;;11.20;64.70;;;;;;5090775;28;20608;-58
2022/11/06 06:56:22;;;;;;;5.40;4.90;;;11.30;64.60;;;;;;5089055;28;20236;-58
2022/11/06 06:58:48;;;;;;;7.37;4.63;;;11.40;64.60;;;;;;5091378;28;20188;-58
2022/11/06 07:01:14;;;;;;;6.87;5.40;;;11.50;64.30;;;;;;5093853;28;20653;-58
2022/11/06 07:03:39;;;;;;;11.80;5.37;;;11.60;63.20;;;;;;5098785;28;20195;-58
2022/11/06 07:06:06;;;;;;;14.27;6.03;;;11.60;63.40;;;;;;5093880;28;20226;-58
2022/11/06 07:08:32;;;;;;;15.73;6.00;;;11.60;61.60;;;;;;5091944;28;20280;-58
2022/11/06 07:11:07;;;;;;;10.17;5.40;;;11.70;61.40;;;;;;5091535;28;20429;-58
2022/11/06 07:13:34;;;;;;;29.83;6.13;;;11.50;60.70;;;;;;5088170;28;20787;-58
2022/11/06 07:16:03;;;;;;;11.87;4.97;;;11.10;59.80;;;;;;5091694;28;20863;-58
2022/11/06 07:18:29;;;;;;;9.70;5.60;;;10.80;62.20;;;;;;5092043;28;20486;-58
2022/11/06 07:20:54;;;;;;;11.70;5.20;;;10.90;61.80;;;;;;5092759;28;20425;-58
2022/11/06 07:23:20;;;;;;;10.40;4.30;;;10.60;61.90;;;;;;5096892;28;20195;-58
2022/11/06 07:25:52;;;;;;;6.50;4.70;;;10.50;63.70;;;;;;5092141;28;20682;-58
2022/11/06 07:28:17;;;;;;;10.53;5.00;;;10.30;63.40;;;;;;5087853;28;20192;-58
2022/11/06 07:30:43;;;;;;;8.53;4.90;;;10.20;62.50;;;;;;5091625;28;21393;-58
2022/11/06 07:33:08;;;;;;;14.13;5.60;;;9.70;65.30;;;;;;5090296;28;20282;-58
2022/11/06 07:35:34;;;;;;;16.73;5.03;;;9.70;66.90;;;;;;5091409;28;20195;-58
2022/11/06 07:38:03;;;;;;;4.90;4.50;;;9.50;67.00;;;;;;5092380;28;20184;-58
2022/11/06 07:40:29;;;;;;;10.63;4.97;;;9.00;69.30;;;;;;5099737;28;20226;-57
2022/11/06 07:42:55;;;;;;;12.33;5.13;;;9.20;71.10;;;;;;5103530;28;20469;-58
2022/11/06 07:45:20;;;;;;;7.57;5.50;;;9.50;69.80;;;;;;5091943;28;20223;-58
2022/11/06 07:47:46;;;;;;;7.57;5.37;;;9.70;68.90;;;;;;5092532;28;20225;-58
2022/11/06 07:50:11;;;;;;;6.70;5.03;;;9.90;68.30;;;;;;5092160;28;20195;-58
2022/11/06 07:52:37;;;;;;;6.10;5.50;;;10.00;65.90;;;;;;5094138;28;20195;-58
2022/11/06 07:55:03;;;;;;;6.67;4.93;;;10.10;65.80;;;;;;5091690;28;20187;-58
2022/11/06 07:57:28;;;;;;;8.40;5.77;;;10.10;66.00;;;;;;5091615;28;20229;-59
2022/11/06 07:59:54;;;;;;;6.03;5.37;;;10.20;65.70;;;;;;5092357;28;20433;-58
2022/11/06 08:02:19;;;;;;;6.33;5.73;;;10.30;65.00;;;;;;5092179;28;20191;-58
2022/11/06 08:04:45;;;;;;;7.90;5.83;;;10.40;63.60;;;;;;5089828;28;20215;-58
2022/11/06 08:07:11;;;;;;;6.23;4.90;;;10.30;64.40;;;;;;5097935;28;20659;-58
2022/11/06 08:09:36;;;;;;;5.17;4.53;;;10.30;65.50;;;;;;5096310;28;20196;-58
2022/11/06 08:12:02;;;;;;;6.70;5.73;;;10.20;67.10;;;;;;5092055;28;20204;-58
2022/11/06 08:14:27;;;;;;;6.83;5.83;;;10.30;67.50;;;;;;5098127;28;20304;-58
2022/11/06 08:16:54;;;;;;;7.60;5.67;;;10.30;67.50;;;;;;5091554;28;20187;-58
2022/11/06 08:19:19;;;;;;;7.03;6.00;;;10.40;68.40;;;;;;5090712;28;20202;-58
2022/11/06 08:21:45;;;;;;;6.93;6.20;;;10.40;68.40;;;;;;5093561;28;20757;-58
2022/11/06 08:24:11;;;;;;;7.87;6.53;;;10.40;68.30;;;;;;5090416;28;20567;-58
2022/11/06 08:26:36;;;;;;;7.70;6.50;;;10.20;68.40;;;;;;5089804;28;20310;-58
2022/11/06 08:29:02;;;;;;;6.50;5.87;;;10.20;69.10;;;;;;5096777;28;21358;-58
2022/11/06 08:31:28;;;;;;;6.57;5.63;;;10.50;68.70;;;;;;5090692;28;20199;-58
2022/11/06 08:33:54;;;;;;;6.17;5.57;;;10.70;68.30;;;;;;5089839;28;20201;-58
2022/11/06 08:36:19;;;;;;;6.43;5.80;;;10.70;67.40;;;;;;5091258;28;20834;-58
2022/11/06 08:38:48;;;;;;;7.70;6.27;;;10.70;68.30;;;;;;5086884;28;20191;-57
2022/11/06 08:41:14;;;;;;;7.40;6.50;;;10.70;67.70;;;;;;5090824;28;20194;-57
2022/11/06 08:43:39;;;;;;;7.97;6.77;;;10.70;68.00;;;;;;5088681;28;20429;-55
2022/11/06 08:46:07;;;;;;;9.23;6.03;;;10.60;67.10;;;;;;5090456;28;20219;-57
2022/11/06 08:48:33;;;;;;;7.57;6.23;;;10.80;68.60;;;;;;5086765;28;20709;-57
2022/11/06 08:50:59;;;;;;;10.07;7.67;;;11.30;68.70;;;;;;5089847;28;20849;-57
2022/11/06 08:53:25;;;;;;;10.37;7.10;;;11.60;68.10;;;;;;5090497;28;20413;-56
2022/11/06 08:55:51;;;;;;;12.10;7.53;;;11.80;66.80;;;;;;5089925;28;20433;-56
2022/11/06 08:58:17;;;;;;;9.93;6.63;;;12.00;66.00;;;;;;5089101;28;20198;-56
2022/11/06 09:00:42;;;;;;;7.70;6.60;;;11.90;64.70;;;;;;5088186;28;20281;-56
2022/11/06 09:03:16;;;;;;;10.00;7.53;;;11.80;66.70;;;;;;5089975;28;20656;-56
2022/11/06 09:05:43;;;;;;;8.87;6.43;;;12.00;66.50;;;;;;5089991;28;20271;-56
2022/11/06 09:08:10;;;;;;;9.17;6.97;;;12.40;66.80;;;;;;5087998;28;20441;-56
2022/11/06 09:10:37;;;;;;;7.73;6.73;;;12.20;66.80;;;;;;5087204;28;20520;-57
2022/11/06 09:13:03;;;;;;;7.50;6.80;;;12.50;66.30;;;;;;5091751;28;20445;-56
2022/11/06 09:15:28;;;;;;;8.80;7.03;;;12.90;65.70;;;;;;5088963;28;20547;-56
2022/11/06 09:17:54;;;;;;;9.60;7.20;;;13.40;64.40;;;;;;5102950;28;20535;-55
2022/11/06 09:20:21;;;;;;;8.90;6.70;;;13.80;62.70;;;;;;5090113;28;20636;-56
2022/11/06 09:22:47;;;;;;;8.43;7.10;;;13.80;61.50;;;;;;5083021;28;20487;-56
2022/11/06 09:25:14;;;;;;;8.33;6.70;;;14.10;60.60;;;;;;5088249;28;20583;-56
2022/11/06 09:27:44;;;;;;;11.23;7.17;;;14.30;59.80;;;;;;5089266;28;20858;-56
2022/11/06 09:30:12;;;;;;;7.80;7.00;;;14.50;59.10;;;;;;5089384;28;20449;-56
2022/11/06 09:32:37;;;;;;;9.47;7.90;;;14.50;58.00;;;;;;5086417;28;20536;-56
2022/11/06 09:35:04;;;;;;;7.67;6.87;;;14.60;57.40;;;;;;5088035;28;20520;-55
2022/11/06 09:37:29;;;;;;;9.07;7.30;;;15.00;57.80;;;;;;5088835;28;20248;-55
2022/11/06 09:39:55;;;;;;;10.57;8.17;;;15.10;57.50;;;;;;5083381;28;20999;-55
2022/11/06 09:42:32;;;;;;;8.27;7.40;;;15.40;56.30;;;;;;5082526;28;20203;-55
2022/11/06 09:45:10;;;;;;;7.50;6.73;;;15.60;56.80;;;;;;5086839;28;20685;-56
2022/11/06 09:47:42;;;;;;;8.00;7.10;;;15.90;55.70;;;;;;5084589;28;20457;-56
2022/11/06 09:50:16;;;;;;;8.90;8.00;;;16.00;55.00;;;;;;5084002;28;20440;-56
2022/11/06 09:52:47;;;;;;;7.43;6.73;;;16.10;55.10;;;;;;5088249;28;20534;-56
2022/11/06 09:55:22;;;;;;;9.27;7.63;;;16.30;54.50;;;;;;5089840;28;20520;-56
2022/11/06 09:57:47;;;;;;;7.87;7.07;;;16.30;55.20;;;;;;5086564;28;20451;-55
2022/11/06 10:00:16;;;;;;;7.97;7.20;;;16.50;55.00;;;;;;5088593;28;22432;-55
2022/11/06 10:02:51;;;;;;;8.30;7.40;;;16.60;53.40;;;;;;5085450;28;20198;-55
2022/11/06 10:05:41;;;;;;;7.60;6.80;;;16.70;53.50;;;;;;5081816;28;20501;-57
2022/11/06 10:08:20;;;;;;;7.80;7.00;;;16.70;53.20;;;;;;5084664;28;20438;-56
2022/11/06 10:11:12;;;;;;;7.57;6.57;;;16.90;53.20;;;;;;5078624;28;20469;-56
2022/11/06 10:13:50;;;;;;;7.53;6.70;;;16.90;53.10;;;;;;5082120;28;20444;-57
2022/11/06 10:16:29;;;;;;;8.23;7.43;;;16.90;53.30;;;;;;5085747;28;20452;-57
2022/11/06 10:19:03;;;;;;;8.67;6.60;;;17.00;52.40;;;;;;5074929;28;20456;-57
2022/11/06 10:22:23;;;;;;;7.27;6.57;;;17.20;52.50;;;;;;5081597;28;20441;-55
2022/11/06 10:25:07;;;;;;;8.77;6.83;;;17.20;52.40;;;;;;5042366;28;20560;-57
2022/11/06 10:27:39;;;;;;;7.03;6.33;;;17.00;52.20;;;;;;5083129;28;20461;-56
2022/11/06 10:30:12;;;;;;;6.97;5.80;;;17.00;53.20;;;;;;5085177;28;20459;-57
2022/11/06 10:32:49;;;;;;;6.93;6.27;;;17.10;52.60;;;;;;5089318;28;20437;-57
2022/11/06 10:35:26;;;;;;;11.30;6.80;;;17.30;52.70;;;;;;5085157;28;20449;-56
2022/11/06 10:37:58;;;;;;;7.50;6.80;;;17.30;51.90;;;;;;5084075;28;20456;-57
2022/11/06 10:40:28;;;;;;;7.43;6.73;;;17.40;52.60;;;;;;5081423;28;20796;-56
2022/11/06 10:43:06;;;;;;;6.30;5.70;;;17.30;52.10;;;;;;5084792;28;20437;-57
2022/11/06 10:45:35;;;;;;;6.00;5.40;;;17.10;51.50;;;;;;5083424;28;20484;-57
2022/11/06 10:48:16;;;;;;;8.53;6.00;;;17.20;52.10;;;;;;5084109;28;20452;-57
2022/11/06 10:51:09;;;;;;;7.93;5.60;;;17.40;52.00;;;;;;5095959;28;20453;-57
2022/11/06 10:53:52;;;;;;;7.63;5.57;;;17.20;51.30;;;;;;5080306;28;20449;-57
2022/11/06 10:56:51;;;;;;;5.53;5.03;;;17.30;52.60;;;;;;5088382;28;20449;-57
2022/11/06 10:59:17;;;;;;;4.93;4.43;;;17.30;52.00;;;;;;5089063;28;20951;-57
2022/11/06 11:01:42;;;;;;;5.00;4.60;;;17.30;52.10;;;;;;5087286;28;20440;-57
2022/11/06 11:04:08;;;;;;;5.07;4.60;;;17.40;51.80;;;;;;5091447;28;20229;-57
2022/11/06 11:06:37;;;;;;;5.00;4.40;;;17.40;52.00;;;;;;5089602;28;20428;-56
2022/11/06 11:09:25;;;;;;;4.27;3.97;;;17.40;52.00;;;;;;5091020;28;20215;-57
2022/11/06 11:11:51;;;;;;;4.60;4.20;;;17.30;51.70;;;;;;5090621;28;20448;-57
2022/11/06 11:14:31;;;;;;;4.80;4.40;;;17.10;51.90;;;;;;5091739;28;20895;-56
2022/11/06 11:17:06;;;;;;;5.27;4.80;;;17.10;52.00;;;;;;5090595;28;20833;-57
2022/11/06 11:19:36;;;;;;;4.23;3.90;;;17.10;52.50;;;;;;5089685;28;20845;-57
2022/11/06 11:22:02;;;;;;;4.57;4.20;;;17.20;52.40;;;;;;5092360;28;20452;-54
2022/11/06 11:24:28;;;;;;;5.17;4.37;;;17.10;52.20;;;;;;5089969;28;20859;-57
2022/11/06 11:27:01;;;;;;;5.30;4.50;;;16.80;52.70;;;;;;5090604;28;20596;-57
2022/11/06 11:29:33;;;;;;;4.23;3.83;;;16.80;53.30;;;;;;5089523;28;20472;-57
2022/11/06 11:32:05;;;;;;;5.03;4.57;;;16.80;52.70;;;;;;5090687;28;20470;-57
2022/11/06 11:34:34;;;;;;;4.97;4.50;;;16.80;53.50;;;;;;5086882;28;20476;-57
2022/11/06 11:37:07;;;;;;;4.30;3.90;;;16.60;53.20;;;;;;5089662;28;20441;-57
2022/11/06 11:39:35;;;;;;;4.37;4.07;;;16.60;53.80;;;;;;5088380;28;20449;-57
2022/11/06 11:42:24;;;;;;;4.07;3.67;;;16.80;53.60;;;;;;5086041;28;20453;-57
2022/11/06 11:45:09;;;;;;;3.70;3.40;;;16.70;53.20;;;;;;5073644;28;20499;-58
2022/11/06 11:47:42;;;;;;;3.57;3.27;;;16.60;52.60;;;;;;5090937;28;21169;-56
2022/11/06 11:50:23;;;;;;;3.80;3.20;;;16.50;53.10;;;;;;5091856;28;20940;-55
2022/11/06 11:52:53;;;;;;;3.80;3.50;;;16.50;53.20;;;;;;5091262;28;20532;-56
2022/11/06 11:55:22;;;;;;;3.03;2.73;;;16.30;52.40;;;;;;5090211;28;21066;-57
2022/11/06 11:57:50;;;;;;;3.53;3.23;;;16.50;53.10;;;;;;5083983;28;20432;-55
2022/11/06 12:00:18;;;;;;;3.80;3.50;;;16.60;52.60;;;;;;5089666;28;20459;-56
2022/11/06 12:02:57;;;;;;;3.80;3.40;;;16.40;52.10;;;;;;5087968;28;20433;-56
2022/11/06 12:05:32;;;;;;;2.90;2.70;;;16.30;52.20;;;;;;5088512;28;20496;-57
2022/11/06 12:07:59;;;;;;;3.00;2.80;;;16.40;52.40;;;;;;5090147;28;20938;-55
2022/11/06 12:10:37;;;;;;;3.40;3.13;;;16.20;51.60;;;;;;5089319;28;20464;-56
2022/11/06 12:13:34;;;;;;;3.37;3.17;;;16.40;52.40;;;;;;5087726;28;20823;-56
2022/11/06 12:16:02;;;;;;;3.63;3.33;;;16.40;52.00;;;;;;5075234;28;20445;-54
2022/11/06 12:18:39;;;;;;;3.07;2.77;;;16.40;51.70;;;;;;5089616;28;20486;-56
2022/11/06 12:21:07;;;;;;;3.60;3.30;;;16.30;51.80;;;;;;5089792;28;20452;-55
2022/11/06 12:24:09;;;;;;;3.40;3.10;;;16.20;51.30;;;;;;5088711;28;20453;-54
2022/11/06 12:26:44;;;;;;;3.90;3.60;;;16.00;51.70;;;;;;5088636;28;20484;-54
2022/11/06 12:29:18;;;;;;;2.90;2.70;;;16.10;51.80;;;;;;5080901;28;20978;-55
2022/11/06 12:31:57;;;;;;;3.53;3.03;;;16.40;51.10;;;;;;5089911;28;20642;-55
2022/11/06 12:34:41;;;;;;;3.03;2.83;;;16.60;50.90;;;;;;5088911;28;20441;-56
2022/11/06 12:37:27;;;;;;;3.60;3.30;;;16.90;50.50;;;;;;5090035;28;20827;-55
2022/11/06 12:40:17;;;;;;;3.37;3.07;;;16.90;49.90;;;;;;5080438;28;20437;-55
2022/11/06 12:43:01;;;;;;;2.83;2.63;;;16.90;50.10;;;;;;5089193;28;20557;-54
2022/11/06 12:45:41;;;;;;;2.73;2.53;;;16.90;50.10;;;;;;5089507;28;20523;-54
2022/11/06 12:48:21;;;;;;;3.90;2.97;;;17.10;49.60;;;;;;5088250;28;20524;-55
2022/11/06 12:51:13;;;;;;;2.90;2.60;;;17.30;49.30;;;;;;5087973;28;20448;-54
2022/11/06 12:54:05;;;;;;;3.13;2.93;;;17.20;49.10;;;;;;5082878;28;20440;-54
2022/11/06 12:57:08;;;;;;;2.80;2.60;;;17.10;48.90;;;;;;5086250;28;20609;-55
2022/11/06 13:00:03;;;;;;;2.70;2.50;;;16.80;49.70;;;;;;5088634;28;20445;-54
2022/11/06 13:02:47;;;;;;;3.73;3.33;;;16.90;49.80;;;;;;5091466;28;20772;-53
2022/11/06 13:05:18;;;;;;;3.20;3.00;;;16.90;50.30;;;;;;5081985;28;20893;-54
2022/11/06 13:07:50;;;;;;;3.23;3.03;;;16.80;50.40;;;;;;5088412;28;20433;-54
2022/11/06 13:10:34;;;;;;;3.10;2.90;;;16.70;50.20;;;;;;5088290;28;20464;-54
2022/11/06 13:13:52;;;;;;;3.70;3.40;;;16.60;50.50;;;;;;5083056;28;20472;-55
2022/11/06 13:16:17;;;;;;;3.87;3.57;;;16.40;50.60;;;;;;5055929;28;20809;-53
2022/11/06 13:18:49;;;;;;;3.83;3.53;;;16.40;50.90;;;;;;5088795;28;20449;-51